sensor_id;sensor_type;location;lat;lon;timestamp;temperature;humidity
35668;DHT22;22158;59.280;17.806;2023-02-28T05:00:43;0.20;99.90
35668;DHT22;22158;59.280;17.806;2023-02-28T05:03:09;0.10;99.90
35668;DHT22;22158;59.280;17.806;2023-02-28T05:05:35;0.10;99.90
35668;DHT22;22158;59.280;17.806;2023-02-28T05:08:00;0.00;99.90
35668;DHT22;22158;59.280;17.806;2023-02-28T05:10:26;0.00;99.90
35668;DHT22;22158;59.280;17.806;2023-02-28T05:12:52;0.00;99.90
35668;DHT22;22158;59.280;17.806;2023-02-28T05:15:18;0.00;99.90
35668;DHT22;22158;59.280;17.806;2023-02-28T05:17:43;-0.10;99.90
35668;DHT22;22158;59.280;17.806;2023-02-28T05:20:10;-0.10;99.90
35668;DHT22;22158;59.280;17.806;2023-02-28T05:22:39;-0.10;99.90
35668;DHT22;22158;59.280;17.806;2023-02-28T05:25:06;-0.20;99.90
35668;DHT22;22158;59.280;17.806;2023-02-28T05:27:32;-0.10;99.90
35668;DHT22;22158;59.280;17.806;2023-02-28T05:29:58;-0.10;99.90
35668;DHT22;22158;59.280;17.806;2023-02-28T05:32:24;-0.20;99.90
35668;DHT22;22158;59.280;17.806;2023-02-28T05:34:50;-0.20;99.90
35668;DHT22;22158;59.280;17.806;2023-02-28T05:37:16;-0.20;99.90
35668;DHT22;22158;59.280;17.806;2023-02-28T05:39:42;-0.30;99.90
35668;DHT22;22158;59.280;17.806;2023-02-28T05:42:08;-0.20;99.90
35668;DHT22;22158;59.280;17.806;2023-02-28T05:44:35;-0.30;99.90
35668;DHT22;22158;59.280;17.806;2023-02-28T05:47:01;-0.30;99.90
35668;DHT22;22158;59.280;17.806;2023-02-28T05:49:26;-0.30;99.90
35668;DHT22;22158;59.280;17.806;2023-02-28T05:51:52;-0.30;99.90
35668;DHT22;22158;59.280;17.806;2023-02-28T05:54:18;-0.30;99.90
35668;DHT22;22158;59.280;17.806;2023-02-28T05:56:43;-0.40;99.90
35668;DHT22;22158;59.280;17.806;2023-02-28T05:59:14;-0.40;99.90
35668;DHT22;22158;59.280;17.806;2023-02-28T06:01:40;-0.40;99.90
35668;DHT22;22158;59.280;17.806;2023-02-28T06:04:08;-0.40;99.90
35668;DHT22;22158;59.280;17.806;2023-02-28T06:06:34;-0.40;99.90
35668;DHT22;22158;59.280;17.806;2023-02-28T06:09:02;-0.40;99.90
35668;DHT22;22158;59.280;17.806;2023-02-28T06:11:28;-0.30;99.90
35668;DHT22;22158;59.280;17.806;2023-02-28T06:13:57;-0.30;99.90
35668;DHT22;22158;59.280;17.806;2023-02-28T06:16:26;-0.30;99.90
35668;DHT22;22158;59.280;17.806;2023-02-28T06:18:52;-0.30;99.90
35668;DHT22;22158;59.280;17.806;2023-02-28T06:21:18;-0.30;99.90
35668;DHT22;22158;59.280;17.806;2023-02-28T06:23:44;-0.30;99.90
35668;DHT22;22158;59.280;17.806;2023-02-28T06:26:10;-0.20;99.90
35668;DHT22;22158;59.280;17.806;2023-02-28T06:28:36;-0.20;99.90
35668;DHT22;22158;59.280;17.806;2023-02-28T06:31:20;-0.20;99.90
35668;DHT22;22158;59.280;17.806;2023-02-28T06:33:47;-0.20;99.90
35668;DHT22;22158;59.280;17.806;2023-02-28T06:36:15;-0.10;99.90
35668;DHT22;22158;59.280;17.806;2023-02-28T06:38:41;-0.10;99.90
35668;DHT22;22158;59.280;17.806;2023-02-28T06:41:08;-0.10;99.90
35668;DHT22;22158;59.280;17.806;2023-02-28T06:43:38;0.00;99.90
35668;DHT22;22158;59.280;17.806;2023-02-28T06:46:06;0.00;99.90
35668;DHT22;22158;59.280;17.806;2023-02-28T06:48:32;0.10;99.90
35668;DHT22;22158;59.280;17.806;2023-02-28T06:51:06;0.10;99.90
35668;DHT22;22158;59.280;17.806;2023-02-28T06:53:32;0.20;99.90
35668;DHT22;22158;59.280;17.806;2023-02-28T06:55:58;0.20;99.90
35668;DHT22;22158;59.280;17.806;2023-02-28T06:58:24;0.30;99.90
35668;DHT22;22158;59.280;17.806;2023-02-28T07:00:51;0.30;99.90
35668;DHT22;22158;59.280;17.806;2023-02-28T07:03:17;0.30;99.90
35668;DHT22;22158;59.280;17.806;2023-02-28T07:05:44;0.40;99.90
35668;DHT22;22158;59.280;17.806;2023-02-28T07:08:10;0.50;99.90
35668;DHT22;22158;59.280;17.806;2023-02-28T07:10:40;0.50;99.90
35668;DHT22;22158;59.280;17.806;2023-02-28T07:13:07;0.60;99.90
35668;DHT22;22158;59.280;17.806;2023-02-28T07:15:34;0.60;99.90
35668;DHT22;22158;59.280;17.806;2023-02-28T07:18:00;0.70;99.90
35668;DHT22;22158;59.280;17.806;2023-02-28T07:20:26;0.70;99.90
35668;DHT22;22158;59.280;17.806;2023-02-28T07:22:52;0.80;99.90
35668;DHT22;22158;59.280;17.806;2023-02-28T07:25:30;0.90;99.90
35668;DHT22;22158;59.280;17.806;2023-02-28T07:27:56;1.00;99.90
35668;DHT22;22158;59.280;17.806;2023-02-28T07:30:24;1.10;99.90
35668;DHT22;22158;59.280;17.806;2023-02-28T07:32:50;1.10;99.90
35668;DHT22;22158;59.280;17.806;2023-02-28T07:35:15;1.20;99.90
35668;DHT22;22158;59.280;17.806;2023-02-28T07:37:42;1.30;99.90
35668;DHT22;22158;59.280;17.806;2023-02-28T07:40:10;1.30;99.90
35668;DHT22;22158;59.280;17.806;2023-02-28T07:42:39;1.40;99.90
35668;DHT22;22158;59.280;17.806;2023-02-28T07:45:06;1.50;99.90
35668;DHT22;22158;59.280;17.806;2023-02-28T07:47:32;1.50;99.90
35668;DHT22;22158;59.280;17.806;2023-02-28T07:49:58;1.60;99.90
35668;DHT22;22158;59.280;17.806;2023-02-28T07:52:24;1.60;99.90
35668;DHT22;22158;59.280;17.806;2023-02-28T07:54:50;1.70;99.90
35668;DHT22;22158;59.280;17.806;2023-02-28T07:57:16;1.80;99.90
35668;DHT22;22158;59.280;17.806;2023-02-28T07:59:42;1.80;99.90
35668;DHT22;22158;59.280;17.806;2023-02-28T08:02:13;1.90;99.90
35668;DHT22;22158;59.280;17.806;2023-02-28T08:04:39;2.00;99.90
35668;DHT22;22158;59.280;17.806;2023-02-28T08:07:04;2.00;99.90
35668;DHT22;22158;59.280;17.806;2023-02-28T08:09:30;2.10;99.90
35668;DHT22;22158;59.280;17.806;2023-02-28T08:11:56;2.20;99.90
35668;DHT22;22158;59.280;17.806;2023-02-28T08:14:22;2.20;99.90
35668;DHT22;22158;59.280;17.806;2023-02-28T08:16:47;2.30;99.90
35668;DHT22;22158;59.280;17.806;2023-02-28T08:19:13;2.40;99.90
35668;DHT22;22158;59.280;17.806;2023-02-28T08:21:39;2.40;99.90
35668;DHT22;22158;59.280;17.806;2023-02-28T08:24:05;2.60;99.90
35668;DHT22;22158;59.280;17.806;2023-02-28T08:26:32;2.60;99.90
35668;DHT22;22158;59.280;17.806;2023-02-28T08:28:57;2.70;99.90
35668;DHT22;22158;59.280;17.806;2023-02-28T08:31:23;2.70;99.90
35668;DHT22;22158;59.280;17.806;2023-02-28T08:33:49;2.80;99.90
35668;DHT22;22158;59.280;17.806;2023-02-28T08:36:17;2.90;99.90
35668;DHT22;22158;59.280;17.806;2023-02-28T08:38:43;3.00;99.90
35668;DHT22;22158;59.280;17.806;2023-02-28T08:41:11;3.00;99.90
35668;DHT22;22158;59.280;17.806;2023-02-28T08:43:38;3.10;99.90
35668;DHT22;22158;59.280;17.806;2023-02-28T08:46:04;3.10;99.90
35668;DHT22;22158;59.280;17.806;2023-02-28T08:48:32;3.20;99.90
35668;DHT22;22158;59.280;17.806;2023-02-28T08:51:03;3.20;99.90
35668;DHT22;22158;59.280;17.806;2023-02-28T08:53:30;3.20;99.90
35668;DHT22;22158;59.280;17.806;2023-02-28T08:56:03;3.20;99.90
35668;DHT22;22158;59.280;17.806;2023-02-28T08:58:29;3.30;99.90
35668;DHT22;22158;59.280;17.806;2023-02-28T09:00:55;3.30;99.90
35668;DHT22;22158;59.280;17.806;2023-02-28T09:03:21;3.30;99.90
35668;DHT22;22158;59.280;17.806;2023-02-28T09:05:54;3.30;99.90
35668;DHT22;22158;59.280;17.806;2023-02-28T09:08:20;3.20;99.90
35668;DHT22;22158;59.280;17.806;2023-02-28T09:10:46;3.30;99.90
35668;DHT22;22158;59.280;17.806;2023-02-28T09:13:12;3.30;99.90
35668;DHT22;22158;59.280;17.806;2023-02-28T09:15:38;3.40;99.90
35668;DHT22;22158;59.280;17.806;2023-02-28T09:18:04;3.60;99.90
35668;DHT22;22158;59.280;17.806;2023-02-28T09:20:30;3.70;99.90
35668;DHT22;22158;59.280;17.806;2023-02-28T09:22:55;3.80;99.90
35668;DHT22;22158;59.280;17.806;2023-02-28T09:25:21;3.90;99.90
35668;DHT22;22158;59.280;17.806;2023-02-28T09:27:47;4.00;99.90
35668;DHT22;22158;59.280;17.806;2023-02-28T09:30:13;4.10;99.90
35668;DHT22;22158;59.280;17.806;2023-02-28T09:32:39;4.10;99.90
35668;DHT22;22158;59.280;17.806;2023-02-28T09:35:05;4.20;99.90
35668;DHT22;22158;59.280;17.806;2023-02-28T09:37:31;4.20;99.90
35668;DHT22;22158;59.280;17.806;2023-02-28T09:39:57;4.30;99.90
35668;DHT22;22158;59.280;17.806;2023-02-28T09:42:31;4.40;99.90
35668;DHT22;22158;59.280;17.806;2023-02-28T09:45:00;4.50;99.90
35668;DHT22;22158;59.280;17.806;2023-02-28T09:47:42;4.50;99.90
35668;DHT22;22158;59.280;17.806;2023-02-28T09:50:46;4.60;99.90
35668;DHT22;22158;59.280;17.806;2023-02-28T09:53:25;4.70;99.90
35668;DHT22;22158;59.280;17.806;2023-02-28T09:55:57;4.70;99.90
35668;DHT22;22158;59.280;17.806;2023-02-28T09:58:32;4.80;99.90
35668;DHT22;22158;59.280;17.806;2023-02-28T10:01:06;4.90;99.90
35668;DHT22;22158;59.280;17.806;2023-02-28T10:03:39;5.00;99.90
35668;DHT22;22158;59.280;17.806;2023-02-28T10:06:18;5.00;99.90
35668;DHT22;22158;59.280;17.806;2023-02-28T10:08:56;5.10;99.90
35668;DHT22;22158;59.280;17.806;2023-02-28T10:11:23;5.30;99.90
35668;DHT22;22158;59.280;17.806;2023-02-28T10:14:02;5.40;99.90
35668;DHT22;22158;59.280;17.806;2023-02-28T10:21:57;5.40;99.90
35668;DHT22;22158;59.280;17.806;2023-02-28T10:24:34;5.40;99.90
35668;DHT22;22158;59.280;17.806;2023-02-28T10:27:22;5.40;99.90
35668;DHT22;22158;59.280;17.806;2023-02-28T10:29:53;5.40;99.90
35668;DHT22;22158;59.280;17.806;2023-02-28T10:32:22;5.40;99.90
35668;DHT22;22158;59.280;17.806;2023-02-28T10:34:54;5.30;99.90
35668;DHT22;22158;59.280;17.806;2023-02-28T10:37:22;5.40;99.90
35668;DHT22;22158;59.280;17.806;2023-02-28T10:39:48;5.50;99.90
35668;DHT22;22158;59.280;17.806;2023-02-28T10:44:45;5.50;99.90
35668;DHT22;22158;59.280;17.806;2023-02-28T10:47:17;5.50;99.90
35668;DHT22;22158;59.280;17.806;2023-02-28T10:49:48;5.50;99.90
35668;DHT22;22158;59.280;17.806;2023-02-28T10:52:40;5.60;99.90
35668;DHT22;22158;59.280;17.806;2023-02-28T10:55:21;5.50;99.90
35668;DHT22;22158;59.280;17.806;2023-02-28T10:57:48;5.70;99.90
35668;DHT22;22158;59.280;17.806;2023-02-28T11:00:19;5.60;99.90
35668;DHT22;22158;59.280;17.806;2023-02-28T11:02:47;5.70;99.90
35668;DHT22;22158;59.280;17.806;2023-02-28T11:05:29;5.80;99.90
35668;DHT22;22158;59.280;17.806;2023-02-28T11:08:15;5.80;99.90
35668;DHT22;22158;59.280;17.806;2023-02-28T11:10:47;5.90;99.90
35668;DHT22;22158;59.280;17.806;2023-02-28T11:13:19;6.00;99.90
35668;DHT22;22158;59.280;17.806;2023-02-28T11:15:57;6.10;99.90
35668;DHT22;22158;59.280;17.806;2023-02-28T11:18:28;6.20;99.90
35668;DHT22;22158;59.280;17.806;2023-02-28T11:20:57;6.30;99.90
35668;DHT22;22158;59.280;17.806;2023-02-28T11:23:30;6.30;99.90
35668;DHT22;22158;59.280;17.806;2023-02-28T11:25:59;6.30;99.90
35668;DHT22;22158;59.280;17.806;2023-02-28T11:28:32;6.40;99.90
35668;DHT22;22158;59.280;17.806;2023-02-28T11:33:48;6.40;99.90
35668;DHT22;22158;59.280;17.806;2023-02-28T11:38:41;6.50;99.90
35668;DHT22;22158;59.280;17.806;2023-02-28T11:52:06;7.00;99.90
35668;DHT22;22158;59.280;17.806;2023-02-28T12:02:25;7.30;99.90
35668;DHT22;22158;59.280;17.806;2023-02-28T12:10:17;7.30;99.90
35668;DHT22;22158;59.280;17.806;2023-02-28T12:28:34;7.30;99.90
35668;DHT22;22158;59.280;17.806;2023-02-28T12:31:18;7.30;99.90
35668;DHT22;22158;59.280;17.806;2023-02-28T12:33:50;7.40;99.90
35668;DHT22;22158;59.280;17.806;2023-02-28T12:36:19;7.50;99.90
35668;DHT22;22158;59.280;17.806;2023-02-28T12:38:54;7.50;99.90
35668;DHT22;22158;59.280;17.806;2023-02-28T12:44:04;7.60;99.90
35668;DHT22;22158;59.280;17.806;2023-02-28T12:46:38;7.60;99.90
35668;DHT22;22158;59.280;17.806;2023-02-28T12:49:16;7.70;99.90
35668;DHT22;22158;59.280;17.806;2023-02-28T12:51:43;7.70;99.90
35668;DHT22;22158;59.280;17.806;2023-02-28T12:59:18;8.20;99.90
35668;DHT22;22158;59.280;17.806;2023-02-28T13:02:01;8.30;99.90
35668;DHT22;22158;59.280;17.806;2023-02-28T13:10:01;8.30;99.90
35668;DHT22;22158;59.280;17.806;2023-02-28T13:12:27;8.30;99.60
35668;DHT22;22158;59.280;17.806;2023-02-28T13:15:22;8.40;99.90
35668;DHT22;22158;59.280;17.806;2023-02-28T13:17:55;8.40;99.80
35668;DHT22;22158;59.280;17.806;2023-02-28T13:20:35;8.40;99.70
35668;DHT22;22158;59.280;17.806;2023-02-28T13:23:02;8.60;99.50
35668;DHT22;22158;59.280;17.806;2023-02-28T13:28:01;9.50;98.10
35668;DHT22;22158;59.280;17.806;2023-02-28T13:38:41;11.10;94.10
35668;DHT22;22158;59.280;17.806;2023-02-28T13:44:19;10.60;94.50
35668;DHT22;22158;59.280;17.806;2023-02-28T14:03:21;9.30;96.70
35668;DHT22;22158;59.280;17.806;2023-02-28T14:08:34;9.10;97.20
35668;DHT22;22158;59.280;17.806;2023-02-28T14:11:06;9.00;97.30
35668;DHT22;22158;59.280;17.806;2023-02-28T14:16:10;8.80;97.60
35668;DHT22;22158;59.280;17.806;2023-02-28T14:18:42;8.80;97.80
35668;DHT22;22158;59.280;17.806;2023-02-28T14:21:31;8.60;97.80
35668;DHT22;22158;59.280;17.806;2023-02-28T14:24:22;8.60;98.00
35668;DHT22;22158;59.280;17.806;2023-02-28T14:27:23;8.50;98.30
35668;DHT22;22158;59.280;17.806;2023-02-28T14:37:45;8.60;98.80
35668;DHT22;22158;59.280;17.806;2023-02-28T14:40:15;8.60;98.90
35668;DHT22;22158;59.280;17.806;2023-02-28T14:42:47;8.60;98.90
35668;DHT22;22158;59.280;17.806;2023-02-28T14:45:18;8.50;99.00
35668;DHT22;22158;59.280;17.806;2023-02-28T14:47:44;8.50;98.90
35668;DHT22;22158;59.280;17.806;2023-02-28T14:50:39;8.40;99.00
35668;DHT22;22158;59.280;17.806;2023-02-28T14:53:17;8.40;99.10
35668;DHT22;22158;59.280;17.806;2023-02-28T14:55:48;8.40;98.90
35668;DHT22;22158;59.280;17.806;2023-02-28T14:58:29;8.20;99.10
35668;DHT22;22158;59.280;17.806;2023-02-28T15:01:00;8.10;99.10
35668;DHT22;22158;59.280;17.806;2023-02-28T15:03:36;8.10;99.40
35668;DHT22;22158;59.280;17.806;2023-02-28T15:06:05;7.90;99.50
35668;DHT22;22158;59.280;17.806;2023-02-28T15:08:32;7.80;99.70
35668;DHT22;22158;59.280;17.806;2023-02-28T15:11:02;7.70;99.90
35668;DHT22;22158;59.280;17.806;2023-02-28T15:16:11;7.50;99.90
35668;DHT22;22158;59.280;17.806;2023-02-28T15:21:20;7.30;99.90
35668;DHT22;22158;59.280;17.806;2023-02-28T15:23:58;7.30;99.90
35668;DHT22;22158;59.280;17.806;2023-02-28T15:26:30;7.20;99.90
35668;DHT22;22158;59.280;17.806;2023-02-28T15:29:07;7.10;99.90
35668;DHT22;22158;59.280;17.806;2023-02-28T15:31:37;7.00;99.90
35668;DHT22;22158;59.280;17.806;2023-02-28T15:34:12;7.00;99.90
35668;DHT22;22158;59.280;17.806;2023-02-28T15:36:41;6.90;99.90
35668;DHT22;22158;59.280;17.806;2023-02-28T15:39:25;6.80;99.90
35668;DHT22;22158;59.280;17.806;2023-02-28T15:42:09;6.80;99.90
35668;DHT22;22158;59.280;17.806;2023-02-28T15:44:35;6.70;99.90
35668;DHT22;22158;59.280;17.806;2023-02-28T15:47:06;6.60;99.90
35668;DHT22;22158;59.280;17.806;2023-02-28T15:49:53;6.60;99.90
35668;DHT22;22158;59.280;17.806;2023-02-28T15:52:44;6.50;99.90
35668;DHT22;22158;59.280;17.806;2023-02-28T15:55:21;6.40;99.90
35668;DHT22;22158;59.280;17.806;2023-02-28T15:57:50;6.40;99.90
35668;DHT22;22158;59.280;17.806;2023-02-28T16:00:21;6.30;99.90
35668;DHT22;22158;59.280;17.806;2023-02-28T16:02:47;6.30;99.90
35668;DHT22;22158;59.280;17.806;2023-02-28T16:05:22;6.20;99.90
35668;DHT22;22158;59.280;17.806;2023-02-28T16:08:13;6.20;99.90
35668;DHT22;22158;59.280;17.806;2023-02-28T16:10:39;6.10;99.90
35668;DHT22;22158;59.280;17.806;2023-02-28T16:13:08;6.00;99.90
35668;DHT22;22158;59.280;17.806;2023-02-28T16:15:39;5.90;99.90
35668;DHT22;22158;59.280;17.806;2023-02-28T16:18:10;5.90;99.90
35668;DHT22;22158;59.280;17.806;2023-02-28T16:20:37;5.80;99.90
35668;DHT22;22158;59.280;17.806;2023-02-28T16:23:02;5.80;99.90
35668;DHT22;22158;59.280;17.806;2023-02-28T16:25:35;5.80;99.90
35668;DHT22;22158;59.280;17.806;2023-02-28T16:28:01;5.70;99.90
35668;DHT22;22158;59.280;17.806;2023-02-28T16:30:28;5.60;99.90
35668;DHT22;22158;59.280;17.806;2023-02-28T16:32:58;5.60;99.90
35668;DHT22;22158;59.280;17.806;2023-02-28T16:35:24;5.60;99.90
35668;DHT22;22158;59.280;17.806;2023-02-28T16:37:53;5.50;99.90
35668;DHT22;22158;59.280;17.806;2023-02-28T16:40:22;5.50;99.90
35668;DHT22;22158;59.280;17.806;2023-02-28T16:42:50;5.40;99.90
35668;DHT22;22158;59.280;17.806;2023-02-28T16:45:25;5.40;99.90
35668;DHT22;22158;59.280;17.806;2023-02-28T16:47:52;5.30;99.90
35668;DHT22;22158;59.280;17.806;2023-02-28T16:50:20;5.30;99.90
35668;DHT22;22158;59.280;17.806;2023-02-28T16:52:47;5.20;99.90
35668;DHT22;22158;59.280;17.806;2023-02-28T16:55:13;5.10;99.90
35668;DHT22;22158;59.280;17.806;2023-02-28T16:57:39;5.20;99.90
35668;DHT22;22158;59.280;17.806;2023-02-28T17:00:07;5.20;99.90
35668;DHT22;22158;59.280;17.806;2023-02-28T17:02:34;5.20;99.90
35668;DHT22;22158;59.280;17.806;2023-02-28T17:05:00;5.10;99.90
35668;DHT22;22158;59.280;17.806;2023-02-28T17:07:25;5.00;99.90
35668;DHT22;22158;59.280;17.806;2023-02-28T17:09:51;5.00;99.90
35668;DHT22;22158;59.280;17.806;2023-02-28T17:12:17;5.00;99.90
35668;DHT22;22158;59.280;17.806;2023-02-28T17:14:42;5.00;99.90
35668;DHT22;22158;59.280;17.806;2023-02-28T17:17:15;5.00;99.90
35668;DHT22;22158;59.280;17.806;2023-02-28T17:19:42;4.90;99.90
35668;DHT22;22158;59.280;17.806;2023-02-28T17:22:09;4.90;99.90
35668;DHT22;22158;59.280;17.806;2023-02-28T17:24:35;4.90;99.90
35668;DHT22;22158;59.280;17.806;2023-02-28T17:27:01;4.80;99.90
35668;DHT22;22158;59.280;17.806;2023-02-28T17:29:27;4.80;99.90
35668;DHT22;22158;59.280;17.806;2023-02-28T17:31:53;4.70;99.90
35668;DHT22;22158;59.280;17.806;2023-02-28T17:34:19;4.60;99.90
35668;DHT22;22158;59.280;17.806;2023-02-28T17:36:46;4.50;99.90
35668;DHT22;22158;59.280;17.806;2023-02-28T17:39:13;4.40;99.90
35668;DHT22;22158;59.280;17.806;2023-02-28T17:41:46;4.40;99.90
35668;DHT22;22158;59.280;17.806;2023-02-28T17:44:11;4.30;99.90
35668;DHT22;22158;59.280;17.806;2023-02-28T17:46:37;4.20;99.90
35668;DHT22;22158;59.280;17.806;2023-02-28T17:49:03;4.10;99.90
35668;DHT22;22158;59.280;17.806;2023-02-28T17:51:29;4.10;99.90
35668;DHT22;22158;59.280;17.806;2023-02-28T17:53:55;4.00;99.90
35668;DHT22;22158;59.280;17.806;2023-02-28T17:56:27;4.10;99.90
35668;DHT22;22158;59.280;17.806;2023-02-28T17:58:55;4.00;99.90
35668;DHT22;22158;59.280;17.806;2023-02-28T18:01:22;4.00;99.90
35668;DHT22;22158;59.280;17.806;2023-02-28T18:03:49;3.90;99.90
35668;DHT22;22158;59.280;17.806;2023-02-28T18:06:24;3.90;99.90
35668;DHT22;22158;59.280;17.806;2023-02-28T18:08:52;3.80;99.90
35668;DHT22;22158;59.280;17.806;2023-02-28T18:11:19;3.80;99.90
35668;DHT22;22158;59.280;17.806;2023-02-28T18:13:50;3.80;99.90
35668;DHT22;22158;59.280;17.806;2023-02-28T18:16:17;3.70;99.90
35668;DHT22;22158;59.280;17.806;2023-02-28T18:18:43;3.70;99.90
35668;DHT22;22158;59.280;17.806;2023-02-28T18:21:14;3.80;99.90
35668;DHT22;22158;59.280;17.806;2023-02-28T18:23:41;3.80;99.90
35668;DHT22;22158;59.280;17.806;2023-02-28T18:26:16;3.90;99.90
35668;DHT22;22158;59.280;17.806;2023-02-28T18:28:42;3.90;99.90
35668;DHT22;22158;59.280;17.806;2023-02-28T18:31:11;4.00;99.90
35668;DHT22;22158;59.280;17.806;2023-02-28T18:33:38;4.00;99.90
35668;DHT22;22158;59.280;17.806;2023-02-28T18:36:04;4.00;99.90
35668;DHT22;22158;59.280;17.806;2023-02-28T18:38:31;4.00;99.90
35668;DHT22;22158;59.280;17.806;2023-02-28T18:41:02;4.00;99.90
35668;DHT22;22158;59.280;17.806;2023-02-28T18:43:28;4.00;99.90
35668;DHT22;22158;59.280;17.806;2023-02-28T18:45:55;4.00;99.90
35668;DHT22;22158;59.280;17.806;2023-02-28T18:48:21;4.00;99.90
35668;DHT22;22158;59.280;17.806;2023-02-28T18:50:50;4.00;99.90
35668;DHT22;22158;59.280;17.806;2023-02-28T18:53:17;4.00;99.90
35668;DHT22;22158;59.280;17.806;2023-02-28T18:55:43;4.00;99.90
35668;DHT22;22158;59.280;17.806;2023-02-28T18:58:09;4.00;99.90
35668;DHT22;22158;59.280;17.806;2023-02-28T19:00:35;4.00;99.90
35668;DHT22;22158;59.280;17.806;2023-02-28T19:03:02;3.90;99.90
35668;DHT22;22158;59.280;17.806;2023-02-28T19:05:27;3.90;99.90
35668;DHT22;22158;59.280;17.806;2023-02-28T19:07:57;3.90;99.90
35668;DHT22;22158;59.280;17.806;2023-02-28T19:10:23;3.90;99.90
35668;DHT22;22158;59.280;17.806;2023-02-28T19:12:49;3.90;99.90
35668;DHT22;22158;59.280;17.806;2023-02-28T19:15:15;3.80;99.90
35668;DHT22;22158;59.280;17.806;2023-02-28T19:17:40;3.80;99.90
35668;DHT22;22158;59.280;17.806;2023-02-28T19:20:07;3.80;99.90
35668;DHT22;22158;59.280;17.806;2023-02-28T19:22:34;3.80;99.90
35668;DHT22;22158;59.280;17.806;2023-02-28T19:25:02;3.80;99.90
35668;DHT22;22158;59.280;17.806;2023-02-28T19:27:27;3.80;99.90
35668;DHT22;22158;59.280;17.806;2023-02-28T19:29:56;3.80;99.90
35668;DHT22;22158;59.280;17.806;2023-02-28T19:32:24;3.70;99.90
35668;DHT22;22158;59.280;17.806;2023-02-28T19:34:50;3.60;99.90
35668;DHT22;22158;59.280;17.806;2023-02-28T19:37:16;3.50;99.90
35668;DHT22;22158;59.280;17.806;2023-02-28T19:39:44;3.50;99.90
35668;DHT22;22158;59.280;17.806;2023-02-28T19:42:13;3.50;99.90
35668;DHT22;22158;59.280;17.806;2023-02-28T19:44:39;3.40;99.90
35668;DHT22;22158;59.280;17.806;2023-02-28T19:47:05;3.40;99.90
35668;DHT22;22158;59.280;17.806;2023-02-28T19:49:31;3.30;99.90
35668;DHT22;22158;59.280;17.806;2023-02-28T19:51:58;3.30;99.90
35668;DHT22;22158;59.280;17.806;2023-02-28T19:54:24;3.30;99.90
35668;DHT22;22158;59.280;17.806;2023-02-28T19:56:51;3.30;99.90
35668;DHT22;22158;59.280;17.806;2023-02-28T19:59:19;3.20;99.90
35668;DHT22;22158;59.280;17.806;2023-02-28T20:01:45;3.20;99.90
35668;DHT22;22158;59.280;17.806;2023-02-28T20:04:12;3.10;99.90
35668;DHT22;22158;59.280;17.806;2023-02-28T20:06:37;3.10;99.90
35668;DHT22;22158;59.280;17.806;2023-02-28T20:09:03;3.10;99.90
35668;DHT22;22158;59.280;17.806;2023-02-28T20:11:29;3.10;99.90
35668;DHT22;22158;59.280;17.806;2023-02-28T20:13:56;3.00;99.90
35668;DHT22;22158;59.280;17.806;2023-02-28T20:16:22;3.00;99.90
35668;DHT22;22158;59.280;17.806;2023-02-28T20:18:49;3.00;99.90
35668;DHT22;22158;59.280;17.806;2023-02-28T20:21:18;3.00;99.90
35668;DHT22;22158;59.280;17.806;2023-02-28T20:23:45;3.00;99.90
35668;DHT22;22158;59.280;17.806;2023-02-28T20:26:14;3.00;99.90
35668;DHT22;22158;59.280;17.806;2023-02-28T20:28:40;2.90;99.90
35668;DHT22;22158;59.280;17.806;2023-02-28T20:31:43;2.80;99.90
35668;DHT22;22158;59.280;17.806;2023-02-28T20:34:03;2.70;99.90
35668;DHT22;22158;59.280;17.806;2023-02-28T20:36:29;2.70;99.90
35668;DHT22;22158;59.280;17.806;2023-02-28T20:38:55;2.60;99.90
35668;DHT22;22158;59.280;17.806;2023-02-28T20:41:21;2.60;99.90
35668;DHT22;22158;59.280;17.806;2023-02-28T20:43:51;2.60;99.90
35668;DHT22;22158;59.280;17.806;2023-02-28T20:46:16;2.70;99.90
35668;DHT22;22158;59.280;17.806;2023-02-28T20:48:42;2.80;99.90
35668;DHT22;22158;59.280;17.806;2023-02-28T20:51:08;2.80;99.90
35668;DHT22;22158;59.280;17.806;2023-02-28T20:53:34;2.80;99.90
35668;DHT22;22158;59.280;17.806;2023-02-28T20:56:02;2.70;99.90
35668;DHT22;22158;59.280;17.806;2023-02-28T20:58:33;2.60;99.90
35668;DHT22;22158;59.280;17.806;2023-02-28T21:03:25;2.60;99.90
35668;DHT22;22158;59.280;17.806;2023-02-28T21:05:51;2.60;99.90
35668;DHT22;22158;59.280;17.806;2023-02-28T21:08:16;2.60;99.90
35668;DHT22;22158;59.280;17.806;2023-02-28T21:10:42;2.50;99.90
35668;DHT22;22158;59.280;17.806;2023-02-28T21:13:08;2.40;99.90
35668;DHT22;22158;59.280;17.806;2023-02-28T21:15:36;2.30;99.90
35668;DHT22;22158;59.280;17.806;2023-02-28T21:18:02;2.30;99.90
35668;DHT22;22158;59.280;17.806;2023-02-28T21:20:28;2.30;99.90
35668;DHT22;22158;59.280;17.806;2023-02-28T21:22:54;2.20;99.90
35668;DHT22;22158;59.280;17.806;2023-02-28T21:25:19;2.20;99.90
35668;DHT22;22158;59.280;17.806;2023-02-28T21:27:45;2.20;99.90
35668;DHT22;22158;59.280;17.806;2023-02-28T21:30:12;2.10;99.90
35668;DHT22;22158;59.280;17.806;2023-02-28T21:32:38;2.10;99.90
35668;DHT22;22158;59.280;17.806;2023-02-28T21:35:04;2.10;99.90
35668;DHT22;22158;59.280;17.806;2023-02-28T21:37:31;2.10;99.90
35668;DHT22;22158;59.280;17.806;2023-02-28T21:39:57;2.10;99.90
35668;DHT22;22158;59.280;17.806;2023-02-28T21:42:23;2.00;99.90
35668;DHT22;22158;59.280;17.806;2023-02-28T21:44:49;1.90;99.90
35668;DHT22;22158;59.280;17.806;2023-02-28T21:47:14;2.00;99.90
35668;DHT22;22158;59.280;17.806;2023-02-28T21:49:40;2.00;99.90
35668;DHT22;22158;59.280;17.806;2023-02-28T21:52:06;2.10;99.90
35668;DHT22;22158;59.280;17.806;2023-02-28T21:54:31;2.10;99.90
35668;DHT22;22158;59.280;17.806;2023-02-28T21:56:57;2.20;99.90
35668;DHT22;22158;59.280;17.806;2023-02-28T21:59:24;2.30;99.90
35668;DHT22;22158;59.280;17.806;2023-02-28T22:01:49;2.40;99.90
35668;DHT22;22158;59.280;17.806;2023-02-28T22:04:16;2.50;99.90
35668;DHT22;22158;59.280;17.806;2023-02-28T22:06:53;2.50;99.90
35668;DHT22;22158;59.280;17.806;2023-02-28T22:09:19;2.50;99.90
35668;DHT22;22158;59.280;17.806;2023-02-28T22:11:51;2.60;99.90
35668;DHT22;22158;59.280;17.806;2023-02-28T22:14:17;2.60;99.90
35668;DHT22;22158;59.280;17.806;2023-02-28T22:16:42;2.60;99.90
35668;DHT22;22158;59.280;17.806;2023-02-28T22:19:09;2.60;99.90
35668;DHT22;22158;59.280;17.806;2023-02-28T22:21:37;2.60;99.90
35668;DHT22;22158;59.280;17.806;2023-02-28T22:24:04;2.50;99.90
35668;DHT22;22158;59.280;17.806;2023-02-28T22:26:31;2.50;99.90
35668;DHT22;22158;59.280;17.806;2023-02-28T22:28:56;2.50;99.90
35668;DHT22;22158;59.280;17.806;2023-02-28T22:31:25;2.50;99.90
35668;DHT22;22158;59.280;17.806;2023-02-28T22:33:53;2.40;99.90
35668;DHT22;22158;59.280;17.806;2023-02-28T22:36:20;2.40;99.90
35668;DHT22;22158;59.280;17.806;2023-02-28T22:38:47;2.50;99.90